Time;durP1;ratioP1;P1;durP2;ratioP2;P2;SDS_P1;SDS_P2;PMS_P1;PMS_P2;Temp;Humidity;BMP_temperature;BMP_pressure;BME280_temperature;BME280_humidity;BME280_pressure;Samples;Min_cycle;Max_cycle;Signal;HPM_P1;HPM_P2
2021/12/07 00:02:02;;;;;;;21.38;15.65;;;;;;;2.12;100.00;100451.50;5025997;28;20041;-78
2021/12/07 00:04:31;;;;;;;19.60;14.52;;;;;;;2.11;100.00;100457.50;5022644;28;20064;-79
2021/12/07 00:07:01;;;;;;;22.42;15.00;;;;;;;2.10;100.00;100457.47;5061788;28;20044;-78
2021/12/07 00:09:29;;;;;;;21.85;16.25;;;;;;;2.11;100.00;100456.63;5061571;28;20048;-80
2021/12/07 00:12:03;;;;;;;21.42;15.45;;;;;;;2.09;100.00;100459.19;5075074;28;20513;-79
2021/12/07 00:14:38;;;;;;;23.27;15.38;;;;;;;2.06;100.00;100461.69;5023001;28;20276;-79
2021/12/07 00:17:08;;;;;;;20.13;15.32;;;;;;;2.06;100.00;100458.19;5064820;28;20049;-78
2021/12/07 00:19:37;;;;;;;23.63;17.27;;;;;;;2.04;100.00;100462.47;5022298;28;20045;-78
2021/12/07 00:22:10;;;;;;;25.08;16.67;;;;;;;2.02;100.00;100461.53;5064369;28;20052;-78
2021/12/07 00:24:40;;;;;;;23.05;16.67;;;;;;;2.00;100.00;100458.88;5057782;28;20181;-79
2021/12/07 00:27:09;;;;;;;19.77;15.95;;;;;;;1.97;100.00;100463.09;5072714;28;20045;-80
2021/12/07 00:29:39;;;;;;;21.85;16.23;;;;;;;1.95;100.00;100469.16;5023106;28;20277;-78
2021/12/07 00:37:34;;;;;;;21.58;15.95;;;;;;;1.82;100.00;100451.41;5052634;28;20413;-79
2021/12/07 00:40:07;;;;;;;27.08;17.48;;;;;;;1.77;100.00;100455.56;5063009;28;20388;-79
2021/12/07 00:42:37;;;;;;;22.90;16.83;;;;;;;1.75;100.00;100462.41;5073393;28;20053;-79
2021/12/07 00:45:08;;;;;;;21.95;16.92;;;;;;;1.72;100.00;100458.03;5041296;28;20044;-79
2021/12/07 00:47:37;;;;;;;27.30;17.45;;;;;;;1.70;100.00;100456.19;5072297;28;20040;-79
2021/12/07 00:50:08;;;;;;;24.88;16.35;;;;;;;1.67;100.00;100464.78;5014492;28;20398;-79
2021/12/07 00:52:37;;;;;;;22.92;15.63;;;;;;;1.66;100.00;100459.53;5047152;28;20040;-79
2021/12/07 00:55:10;;;;;;;23.08;16.08;;;;;;;1.62;100.00;100475.84;5075511;28;20037;-79
2021/12/07 00:57:39;;;;;;;24.63;15.57;;;;;;;1.58;100.00;100469.66;5074449;28;20222;-78
2021/12/07 01:00:13;;;;;;;22.73;16.58;;;;;;;1.54;100.00;100468.66;5069505;28;20033;-79
2021/12/07 01:02:42;;;;;;;24.73;17.90;;;;;;;1.54;100.00;100463.47;5044742;28;20049;-79
2021/12/07 01:05:18;;;;;;;17.20;12.52;;;;;;;1.54;100.00;100460.88;5053698;28;20041;-79
2021/12/07 01:07:58;;;;;;;23.10;15.95;;;;;;;1.53;100.00;100474.72;5048131;28;20412;-79
2021/12/07 01:24:43;;;;;;;23.40;15.38;;;;;;;1.44;100.00;100482.19;5056014;28;20055;-79
2021/12/07 01:27:16;;;;;;;22.88;16.88;;;;;;;1.45;100.00;100489.13;5073738;28;20048;-80
2021/12/07 01:29:50;;;;;;;26.83;18.15;;;;;;;1.43;100.00;100483.00;5049552;28;20394;-78
2021/12/07 01:40:26;;;;;;;26.50;16.83;;;;;;;1.38;100.00;100501.84;5047607;28;20037;-78
2021/12/07 02:01:57;;;;;;;24.92;17.20;;;;;;;1.00;100.00;100494.47;5059215;28;20036;-80
2021/12/07 02:04:26;;;;;;;24.52;17.88;;;;;;;0.98;100.00;100496.13;5055614;28;20041;-79
2021/12/07 02:06:55;;;;;;;23.35;17.20;;;;;;;0.95;100.00;100498.63;5038631;28;20053;-79
2021/12/07 02:09:24;;;;;;;23.52;17.00;;;;;;;0.91;100.00;100501.94;5006523;28;20070;-80
2021/12/07 02:11:59;;;;;;;24.00;16.58;;;;;;;0.87;100.00;100497.44;5043754;28;20041;-78
2021/12/07 02:14:30;;;;;;;24.52;17.17;;;;;;;0.84;100.00;100506.00;5037334;28;20032;-80
2021/12/07 02:17:03;;;;;;;18.35;12.98;;;;;;;0.81;100.00;100502.41;5056672;28;20074;-78
2021/12/07 02:19:32;;;;;;;22.33;15.55;;;;;;;0.79;100.00;100504.94;5051381;28;20045;-79
2021/12/07 02:22:03;;;;;;;26.15;17.38;;;;;;;0.78;100.00;100493.69;5045763;28;20044;-78
2021/12/07 02:24:39;;;;;;;21.75;15.90;;;;;;;0.74;100.00;100497.00;5036357;28;20040;-78
2021/12/07 02:27:08;;;;;;;25.83;16.88;;;;;;;0.71;100.00;100502.06;5072598;28;20040;-79
2021/12/07 02:29:37;;;;;;;27.15;17.40;;;;;;;0.69;100.00;100503.72;5038642;28;20045;-79
2021/12/07 02:32:06;;;;;;;28.38;17.73;;;;;;;0.69;100.00;100502.84;5051941;28;20048;-79
2021/12/07 02:34:36;;;;;;;22.85;17.05;;;;;;;0.66;100.00;100506.22;5049359;28;20433;-78
2021/12/07 02:37:09;;;;;;;25.10;16.33;;;;;;;0.65;100.00;100516.53;5037048;28;20457;-78
2021/12/07 02:39:44;;;;;;;25.27;16.55;;;;;;;0.61;100.00;100505.16;4991483;28;20253;-77
2021/12/07 02:42:13;;;;;;;24.25;16.35;;;;;;;0.57;100.00;100514.53;5051995;28;20049;-80
2021/12/07 02:44:41;;;;;;;24.75;16.88;;;;;;;0.56;100.00;100510.16;5051387;28;20285;-78
2021/12/07 02:47:14;;;;;;;26.95;16.38;;;;;;;0.54;100.00;100519.59;5071818;28;20045;-79
2021/12/07 02:49:43;;;;;;;22.73;15.70;;;;;;;0.56;100.00;100517.94;5065364;28;20063;-78
2021/12/07 02:52:12;;;;;;;23.23;15.88;;;;;;;0.56;100.00;100522.25;5051516;28;20040;-78
2021/12/07 02:54:45;;;;;;;24.67;16.65;;;;;;;0.56;100.00;100530.03;5002270;28;20048;-78
2021/12/07 02:57:21;;;;;;;27.40;16.75;;;;;;;0.58;100.00;100524.06;5044938;28;20056;-79
2021/12/07 03:00:09;;;;;;;23.02;15.93;;;;;;;0.60;100.00;100524.13;5053806;28;20516;-77
2021/12/07 03:02:47;;;;;;;26.08;15.95;;;;;;;0.60;100.00;100528.44;5054658;28;20177;-78
2021/12/07 03:05:32;;;;;;;24.75;16.15;;;;;;;0.61;100.00;100531.09;5066958;28;20037;-79
2021/12/07 03:27:31;;;;;;;25.13;15.88;;;;;;;0.46;100.00;100540.88;5016575;28;20037;-78
2021/12/07 03:30:05;;;;;;;24.70;16.33;;;;;;;0.46;100.00;100535.69;5052993;28;20044;-78
2021/12/07 03:32:36;;;;;;;22.38;15.15;;;;;;;0.46;100.00;100536.56;5052462;28;20036;-79
2021/12/07 03:35:05;;;;;;;22.73;15.50;;;;;;;0.48;100.00;100542.69;5070735;28;20095;-78
2021/12/07 03:37:35;;;;;;;25.70;16.63;;;;;;;0.50;100.00;100535.84;5070067;28;20045;-78
2021/12/07 03:40:04;;;;;;;24.10;16.20;;;;;;;0.53;100.00;100533.38;5067830;28;20036;-80
2021/12/07 03:42:33;;;;;;;26.98;18.02;;;;;;;0.55;100.00;100526.53;5019169;28;20036;-78
2021/12/07 03:45:05;;;;;;;24.17;16.30;;;;;;;0.58;100.00;100525.78;5045597;28;20524;-79
2021/12/07 03:47:33;;;;;;;21.77;15.90;;;;;;;0.59;100.00;100537.94;5066801;28;20498;-78
2021/12/07 03:50:04;;;;;;;25.13;17.13;;;;;;;0.61;100.00;100541.47;5050362;28;20136;-77
2021/12/07 03:52:34;;;;;;;25.27;17.05;;;;;;;0.63;100.00;100545.00;5047372;28;20040;-78
2021/12/07 03:55:05;;;;;;;24.92;16.70;;;;;;;0.66;100.00;100550.31;5069145;28;20038;-78
2021/12/07 03:57:34;;;;;;;24.35;16.70;;;;;;;0.67;100.00;100553.78;5020455;28;20041;-77
2021/12/07 04:00:07;;;;;;;22.75;15.75;;;;;;;0.69;100.00;100560.78;5053509;28;20043;-79
2021/12/07 04:02:42;;;;;;;25.45;17.08;;;;;;;0.71;100.00;100559.13;5076889;28;20044;-78
2021/12/07 04:05:19;;;;;;;24.42;17.55;;;;;;;0.71;100.00;100559.13;5059875;28;20057;-78
2021/12/07 04:07:51;;;;;;;24.52;16.55;;;;;;;0.72;100.00;100555.72;5072820;28;20037;-78
2021/12/07 04:10:23;;;;;;;22.63;16.58;;;;;;;0.74;100.00;100563.56;5028689;28;20045;-78
2021/12/07 04:12:52;;;;;;;25.10;16.90;;;;;;;0.75;100.00;100566.19;4993392;28;20043;-78
2021/12/07 04:15:21;;;;;;;25.10;17.47;;;;;;;0.77;100.00;100571.44;5031002;28;20049;-77
2021/12/07 04:17:50;;;;;;;25.45;16.25;;;;;;;0.78;100.00;100581.88;5057399;28;20295;-79
2021/12/07 04:20:20;;;;;;;24.55;16.75;;;;;;;0.79;100.00;100582.75;5065521;28;20045;-78
2021/12/07 04:22:48;;;;;;;28.08;18.10;;;;;;;0.78;100.00;100587.06;5035273;28;20049;-78
2021/12/07 04:25:18;;;;;;;23.95;16.88;;;;;;;0.80;100.00;100579.34;5057765;28;20276;-78
2021/12/07 04:27:46;;;;;;;23.25;16.95;;;;;;;0.81;100.00;100577.63;5080145;28;20510;-79
2021/12/07 04:30:19;;;;;;;26.52;18.13;;;;;;;0.82;100.00;100587.22;5030782;28;20553;-79
2021/12/07 04:32:48;;;;;;;31.13;19.80;;;;;;;0.82;100.00;100588.09;5045509;28;20024;-79
2021/12/07 04:35:19;;;;;;;22.65;17.27;;;;;;;0.83;100.00;100589.84;5050692;28;20045;-78
2021/12/07 04:37:48;;;;;;;29.13;18.60;;;;;;;0.85;100.00;100587.31;5077256;28;20051;-79
2021/12/07 04:40:20;;;;;;;29.48;19.13;;;;;;;0.85;100.00;100583.03;5060114;28;20060;-77
2021/12/07 04:42:49;;;;;;;28.83;18.23;;;;;;;0.85;100.00;100580.44;5033911;28;20048;-78
2021/12/07 04:58:48;;;;;;;25.00;16.80;;;;;;;0.90;100.00;100578.00;5071423;28;19928;-78
2021/12/07 05:01:19;;;;;;;28.30;18.35;;;;;;;0.90;100.00;100588.38;5023292;28;20364;-77
2021/12/07 05:03:49;;;;;;;31.42;19.48;;;;;;;0.89;100.00;100573.63;5052105;28;20056;-80
2021/12/07 05:06:21;;;;;;;36.83;20.50;;;;;;;0.90;100.00;100585.78;5053834;28;20048;-80
2021/12/07 05:08:56;;;;;;;31.17;18.98;;;;;;;0.89;100.00;100579.72;5017949;28;20497;-79
2021/12/07 05:11:45;;;;;;;27.98;18.98;;;;;;;0.90;100.00;100576.28;5034669;28;20032;-78
2021/12/07 05:14:19;;;;;;;28.42;19.52;;;;;;;0.90;100.00;100575.41;5059140;28;20574;-79
2021/12/07 05:38:38;;;;;;;26.48;17.63;;;;;;;0.69;100.00;100617.84;5074393;28;20040;-78
2021/12/07 05:41:08;;;;;;;33.65;19.23;;;;;;;0.70;100.00;100624.81;5041844;28;20347;-78
2021/12/07 05:43:37;;;;;;;37.10;20.05;;;;;;;0.69;100.00;100625.63;5051090;28;20049;-78
2021/12/07 05:46:06;;;;;;;28.80;17.90;;;;;;;0.71;100.00;100636.94;5039458;28;20051;-78
2021/12/07 05:48:34;;;;;;;33.55;19.67;;;;;;;0.72;100.00;100628.34;5028380;28;20049;-78
2021/12/07 05:51:04;;;;;;;32.95;19.23;;;;;;;0.74;100.00;100631.00;5047251;28;20170;-78
2021/12/07 05:53:34;;;;;;;37.38;20.13;;;;;;;0.76;100.00;100624.16;5087718;28;20049;-77
2021/12/07 05:56:04;;;;;;;31.08;19.30;;;;;;;0.75;100.00;100631.03;5051439;28;20048;-78
2021/12/07 05:58:34;;;;;;;29.40;19.25;;;;;;;0.75;100.00;100631.03;5048294;28;20064;-78
2021/12/07 06:01:03;;;;;;;32.92;20.20;;;;;;;0.75;100.00;100633.63;5025509;28;20053;-79
2021/12/07 06:03:33;;;;;;;31.30;19.48;;;;;;;0.74;100.00;100626.69;5000543;28;20048;-79
2021/12/07 06:06:04;;;;;;;26.75;17.40;;;;;;;0.74;100.00;100631.00;5053457;28;20079;-78
2021/12/07 06:08:33;;;;;;;33.45;18.67;;;;;;;0.69;100.00;100633.41;5071011;28;20044;-78
2021/12/07 06:11:01;;;;;;;27.98;18.45;;;;;;;0.68;100.00;100641.13;5049012;28;20068;-78
2021/12/07 06:13:30;;;;;;;29.70;17.63;;;;;;;0.66;100.00;100653.13;5016061;28;20052;-78
2021/12/07 06:16:05;;;;;;;25.80;16.13;;;;;;;0.64;100.00;100645.28;5034675;28;20036;-78
2021/12/07 06:18:36;;;;;;;24.40;16.83;;;;;;;0.64;100.00;100663.44;5042738;28;20045;-78
2021/12/07 06:21:04;;;;;;;27.77;18.30;;;;;;;0.63;100.00;100664.28;5045019;28;20056;-79
2021/12/07 06:23:33;;;;;;;27.85;17.55;;;;;;;0.62;100.00;100654.72;5038749;28;20302;-79
2021/12/07 06:26:14;;;;;;;30.95;14.15;;;;;;;0.58;100.00;100658.91;5054685;28;20541;-77
2021/12/07 06:28:43;;;;;;;27.73;17.73;;;;;;;0.54;100.00;100654.41;5057729;28;20041;-79
2021/12/07 06:31:15;;;;;;;32.10;20.37;;;;;;;0.51;100.00;100653.41;5046525;28;20049;-80
2021/12/07 06:33:43;;;;;;;27.20;16.13;;;;;;;0.49;100.00;100680.97;5065709;28;20051;-79
2021/12/07 06:36:14;;;;;;;27.20;17.20;;;;;;;0.49;100.00;100676.69;5014645;28;20044;-79
2021/12/07 06:38:45;;;;;;;39.08;18.90;;;;;;;0.50;100.00;100672.38;5065451;28;20028;-78
2021/12/07 06:41:13;;;;;;;26.30;16.88;;;;;;;0.48;100.00;100672.31;5059449;28;20048;-79
2021/12/07 06:43:42;;;;;;;37.63;20.52;;;;;;;0.47;100.00;100673.13;5046788;28;20045;-79
2021/12/07 06:46:13;;;;;;;29.35;16.38;;;;;;;0.48;100.00;100664.53;5063188;28;20063;-80
2021/12/07 06:48:41;;;;;;;30.27;15.50;;;;;;;0.46;100.00;100670.50;5051394;28;20045;-80
2021/12/07 06:51:10;;;;;;;24.95;15.10;;;;;;;0.45;100.00;100669.59;5013847;28;20051;-81
2021/12/07 06:53:39;;;;;;;23.98;14.68;;;;;;;0.44;100.00;100669.56;5056176;28;20052;-80
2021/12/07 06:56:09;;;;;;;24.02;14.07;;;;;;;0.44;100.00;100669.56;5023499;28;20048;-80
2021/12/07 06:58:38;;;;;;;24.70;15.00;;;;;;;0.45;100.00;100677.38;5047146;28;20063;-80
2021/12/07 07:01:10;;;;;;;27.23;14.20;;;;;;;0.45;100.00;100676.50;5065289;28;20395;-82
2021/12/07 07:03:40;;;;;;;23.63;13.30;;;;;;;0.45;100.00;100685.16;5024418;28;20154;-81
2021/12/07 07:06:09;;;;;;;32.72;14.20;;;;;;;0.44;100.00;100682.50;5047940;28;20036;-84
2021/12/07 07:08:37;;;;;;;24.52;13.38;;;;;;;0.44;100.00;100696.34;5016355;28;20719;-83
2021/12/07 07:11:06;;;;;;;27.33;14.82;;;;;;;0.42;100.00;100691.91;5028586;28;20052;-83
2021/12/07 07:13:35;;;;;;;24.80;14.32;;;;;;;0.40;100.00;100704.84;5001397;28;20040;-82
2021/12/07 07:16:08;;;;;;;29.15;14.88;;;;;;;0.41;100.00;100708.31;5052928;28;20052;-83
2021/12/07 07:18:37;;;;;;;18.73;12.00;;;;;;;0.41;100.00;100709.19;5046746;28;20597;-82
2021/12/07 07:21:06;;;;;;;19.98;11.35;;;;;;;0.42;100.00;100707.47;5052482;28;20060;-83
2021/12/07 07:23:34;;;;;;;20.98;11.95;;;;;;;0.43;100.00;100717.91;5006564;28;20049;-82
2021/12/07 07:26:04;;;;;;;23.38;11.75;;;;;;;0.44;100.00;100719.69;5053000;28;20053;-83
2021/12/07 07:28:33;;;;;;;21.80;12.63;;;;;;;0.45;100.00;100725.75;5032094;28;20371;-82
2021/12/07 07:31:05;;;;;;;22.30;12.13;;;;;;;0.45;100.00;100721.44;5052662;28;20040;-83
2021/12/07 07:33:33;;;;;;;21.23;12.38;;;;;;;0.45;100.00;100725.75;5032805;28;20379;-82
2021/12/07 07:36:03;;;;;;;16.73;10.20;;;;;;;0.45;100.00;100726.63;5024910;28;20039;-83
2021/12/07 07:38:33;;;;;;;17.05;11.75;;;;;;;0.45;100.00;100741.31;5002568;28;20052;-82
2021/12/07 07:41:03;;;;;;;20.80;11.43;;;;;;;0.44;100.00;100736.97;5037562;28;20537;-82
2021/12/07 07:43:33;;;;;;;20.30;11.45;;;;;;;0.43;100.00;100749.00;5025429;28;20057;-82
2021/12/07 07:46:08;;;;;;;21.92;12.10;;;;;;;0.46;100.00;100740.50;5033805;28;20343;-81
2021/12/07 07:48:36;;;;;;;18.50;11.40;;;;;;;0.49;100.00;100750.97;5030168;28;20517;-82
2021/12/07 07:51:05;;;;;;;18.27;10.85;;;;;;;0.52;100.00;100752.00;5016849;28;20494;-82
2021/12/07 07:53:33;;;;;;;18.70;11.30;;;;;;;0.57;100.00;100757.41;5038502;28;20371;-81
2021/12/07 07:56:04;;;;;;;17.92;11.27;;;;;;;0.61;100.00;100761.88;5017097;28;20043;-82
2021/12/07 07:58:33;;;;;;;20.65;10.63;;;;;;;0.64;100.00;100769.78;5040023;28;20056;-81
2021/12/07 08:01:03;;;;;;;20.13;10.85;;;;;;;0.67;100.00;100761.25;5022837;28;20048;-82
2021/12/07 08:03:32;;;;;;;18.60;10.32;;;;;;;0.69;100.00;100762.19;5071888;28;20052;-81
2021/12/07 08:06:00;;;;;;;24.73;10.75;;;;;;;0.71;100.00;100764.03;5009389;28;20036;-84
2021/12/07 08:08:29;;;;;;;17.98;9.95;;;;;;;0.73;100.00;100753.72;5038157;28;20052;-81
2021/12/07 08:10:59;;;;;;;21.60;9.95;;;;;;;0.75;100.00;100752.94;4994557;28;20502;-82
2021/12/07 08:13:30;;;;;;;25.35;9.75;;;;;;;0.77;100.00;100751.31;5059533;28;20047;-81
2021/12/07 08:16:00;;;;;;;24.60;9.32;;;;;;;0.80;100.00;100744.50;5012122;28;20056;-81
2021/12/07 08:18:28;;;;;;;18.90;8.80;;;;;;;0.81;100.00;100751.44;5030302;28;20053;-81
2021/12/07 08:20:57;;;;;;;14.35;9.70;;;;;;;0.83;100.00;100752.38;5044518;28;20040;-82
2021/12/07 08:23:25;;;;;;;15.82;8.52;;;;;;;0.84;100.00;100751.56;5028341;28;20280;-81
2021/12/07 08:25:55;;;;;;;16.40;8.75;;;;;;;0.85;100.00;100753.34;4997665;28;20032;-82
2021/12/07 08:28:23;;;;;;;18.30;9.68;;;;;;;0.87;100.00;100756.88;5058851;28;20157;-81
2021/12/07 08:30:51;;;;;;;26.17;9.52;;;;;;;0.89;100.00;100755.22;5044100;28;20071;-82
2021/12/07 08:33:20;;;;;;;18.92;9.15;;;;;;;0.91;100.00;100761.38;5028780;28;20076;-81
2021/12/07 08:35:49;;;;;;;18.80;8.55;;;;;;;0.91;100.00;100759.66;5016293;28;20045;-82
2021/12/07 08:38:17;;;;;;;15.85;9.18;;;;;;;0.94;100.00;100774.47;5051149;28;20253;-81
2021/12/07 08:40:53;;;;;;;18.08;8.43;;;;;;;0.97;100.00;100764.22;5029583;28;20063;-81
2021/12/07 08:43:28;;;;;;;22.85;9.43;;;;;;;1.00;100.00;100747.88;5027632;28;20044;-81
2021/12/07 08:45:59;;;;;;;15.95;8.15;;;;;;;1.01;100.00;100737.56;5065555;28;20386;-83
2021/12/07 08:48:28;;;;;;;19.88;8.05;;;;;;;1.04;100.00;100742.91;5051134;28;20037;-82
2021/12/07 08:50:59;;;;;;;14.10;7.32;;;;;;;1.06;100.00;100749.03;5040364;28;20402;-83
2021/12/07 08:53:28;;;;;;;11.45;5.85;;;;;;;1.08;100.00;100741.31;5033806;28;20053;-83
2021/12/07 09:01:36;;;;;;;18.48;8.55;;;;;;;1.16;100.00;100745.97;5041426;28;20048;-82
2021/12/07 09:04:06;;;;;;;;;;;;;;;1.21;100.00;100753.03;5029394;28;20056;-83
2021/12/07 09:06:35;;;;;;;21.88;10.30;;;;;;;1.24;100.00;100756.66;5063651;28;19921;-82
2021/12/07 09:09:04;;;;;;;19.15;9.18;;;;;;;1.29;100.00;100762.91;5027689;28;20048;-82
2021/12/07 09:11:32;;;;;;;26.80;10.57;;;;;;;1.35;100.00;100762.25;5042992;28;20060;-81
2021/12/07 09:14:00;;;;;;;21.33;10.60;;;;;;;1.39;100.00;100763.28;4998152;28;20041;-83
2021/12/07 09:16:29;;;;;;;20.95;9.90;;;;;;;1.45;100.00;100754.00;5051326;28;20045;-82
2021/12/07 09:18:59;;;;;;;18.80;9.88;;;;;;;1.47;100.00;100752.34;5046566;28;20057;-82
2021/12/07 09:21:28;;;;;;;12.52;7.45;;;;;;;1.52;100.00;100771.59;5051314;28;20052;-82
2021/12/07 09:23:56;;;;;;;16.38;9.02;;;;;;;1.58;100.00;100770.06;5033326;28;20048;-82
2021/12/07 09:26:25;;;;;;;17.33;8.95;;;;;;;1.64;100.00;100754.69;5041599;28;20052;-81
2021/12/07 09:28:53;;;;;;;21.05;10.57;;;;;;;1.69;100.00;100743.66;5011080;28;20045;-84
2021/12/07 09:31:22;;;;;;;18.13;8.90;;;;;;;1.75;100.00;100743.00;5022759;28;20063;-83
2021/12/07 09:33:52;;;;;;;19.92;8.80;;;;;;;1.79;100.00;100738.81;5039925;28;20037;-83
2021/12/07 09:36:21;;;;;;;14.35;9.60;;;;;;;1.83;100.00;100741.56;5056150;28;20720;-82
2021/12/07 09:38:57;;;;;;;22.38;9.13;;;;;;;1.89;100.00;100752.19;5017942;28;20028;-83
2021/12/07 09:41:25;;;;;;;16.27;9.10;;;;;;;1.96;100.00;100748.09;5062361;28;20253;-82
2021/12/07 09:43:54;;;;;;;15.05;8.75;;;;;;;2.03;100.00;100746.63;5012009;28;20398;-82
2021/12/07 09:46:23;;;;;;;19.70;8.70;;;;;;;2.09;100.00;100745.09;5065305;28;20237;-82
2021/12/07 09:48:52;;;;;;;15.88;8.63;;;;;;;2.13;100.00;100741.78;5057129;28;20541;-83
2021/12/07 09:51:24;;;;;;;17.02;7.78;;;;;;;2.20;100.00;100742.03;5045160;28;20049;-82
2021/12/07 09:53:54;;;;;;;14.43;8.18;;;;;;;2.26;100.00;100737.91;5053866;28;20040;-82
2021/12/07 09:56:24;;;;;;;14.00;8.10;;;;;;;2.32;100.00;100745.91;5067057;28;20215;-82
2021/12/07 09:58:56;;;;;;;15.65;8.05;;;;;;;2.40;100.00;100759.22;5029942;28;20024;-82
2021/12/07 10:01:27;;;;;;;19.42;8.55;;;;;;;2.45;100.00;100755.03;5043077;28;20067;-82
2021/12/07 10:03:56;;;;;;;19.75;7.55;;;;;;;2.51;100.00;100754.34;5053984;28;20051;-83
2021/12/07 10:06:28;;;;;;;14.43;8.13;;;;;;;2.57;100.00;100767.59;5054140;28;20441;-82
2021/12/07 10:08:56;;;;;;;19.60;7.38;;;;;;;2.63;100.00;100773.00;5049502;28;20044;-83
2021/12/07 10:11:25;;;;;;;16.35;7.20;;;;;;;2.67;100.00;100769.66;5025532;28;20557;-82
2021/12/07 10:13:53;;;;;;;17.17;7.47;;;;;;;2.72;100.00;100762.91;5020203;28;20505;-82
2021/12/07 10:16:23;;;;;;;17.48;7.30;;;;;;;2.79;100.00;100764.00;5012938;28;20217;-82
2021/12/07 10:19:01;;;;;;;23.20;8.00;;;;;;;2.85;100.00;100766.78;5037781;28;20057;-83
2021/12/07 10:21:38;;;;;;;17.77;8.10;;;;;;;2.92;100.00;100770.50;5046783;28;20049;-82
2021/12/07 10:24:10;;;;;;;16.25;7.15;;;;;;;2.97;100.00;100770.63;5039242;28;20261;-82
2021/12/07 10:26:43;;;;;;;16.52;7.45;;;;;;;3.00;100.00;100766.41;5050899;28;20048;-82
2021/12/07 10:29:15;;;;;;;14.45;7.22;;;;;;;3.01;100.00;100767.31;5044311;28;20255;-82
2021/12/07 10:32:01;;;;;;;17.55;7.88;;;;;;;3.00;100.00;100770.75;5006542;28;20049;-82
2021/12/07 10:34:35;;;;;;;15.07;7.53;;;;;;;3.01;100.00;100777.72;5042982;28;20048;-83
2021/12/07 10:37:04;;;;;;;18.45;7.20;;;;;;;3.03;100.00;100770.84;5052893;28;20037;-82
2021/12/07 10:39:45;;;;;;;17.35;7.80;;;;;;;3.04;100.00;100777.81;5055726;28;20041;-83
2021/12/07 10:42:26;;;;;;;21.15;7.55;;;;;;;3.04;100.00;100764.78;5045143;28;20045;-82
2021/12/07 10:45:08;;;;;;;11.90;6.57;;;;;;;3.04;100.00;100772.59;5033455;28;20051;-81
2021/12/07 10:47:37;;;;;;;15.60;7.05;;;;;;;3.07;100.00;100765.78;5050582;28;20527;-81
2021/12/07 10:50:09;;;;;;;23.70;8.13;;;;;;;3.15;100.00;100760.81;5052546;28;20048;-82
2021/12/07 10:52:45;;;;;;;19.15;7.63;;;;;;;3.24;100.00;100768.91;5068196;28;20059;-81
2021/12/07 10:55:16;;;;;;;16.92;6.97;;;;;;;3.31;100.00;100770.88;5033787;28;20045;-81
2021/12/07 10:57:51;;;;;;;17.60;7.05;;;;;;;3.40;100.00;100765.06;5045297;28;20056;-81
2021/12/07 11:00:44;;;;;;;18.80;6.95;;;;;;;3.49;100.00;100767.06;5013641;28;20099;-81
2021/12/07 11:03:20;;;;;;;17.95;6.78;;;;;;;3.56;100.00;100758.63;5035822;28;20638;-81
2021/12/07 11:05:53;;;;;;;18.15;7.00;;;;;;;3.63;100.00;100767.47;5034552;28;20040;-85
2021/12/07 11:08:26;;;;;;;19.02;6.97;;;;;;;3.70;100.00;100764.22;5031350;28;20161;-81
2021/12/07 11:10:55;;;;;;;16.15;6.75;;;;;;;3.77;100.00;100762.72;5063451;28;20032;-83
2021/12/07 11:13:34;;;;;;;12.25;6.78;;;;;;;3.83;100.00;100760.28;5018563;28;20743;-82
2021/12/07 11:16:09;;;;;;;15.77;6.47;;;;;;;3.89;100.00;100753.53;5015371;28;20051;-82
2021/12/07 11:18:41;;;;;;;17.38;6.15;;;;;;;3.97;100.00;100758.06;5038900;28;20063;-83
2021/12/07 11:21:19;;;;;;;20.58;6.60;;;;;;;4.01;100.00;100765.16;5057535;28;20142;-82
2021/12/07 11:23:52;;;;;;;16.13;5.38;;;;;;;4.06;100.00;100763.53;5024068;28;20527;-83
2021/12/07 11:32:01;;;;;;;25.23;7.15;;;;;;;4.23;100.00;100750.97;5012453;28;20059;-82
2021/12/07 11:34:39;;;;;;;8.50;4.85;;;;;;;4.32;100.00;100742.50;5061594;28;20052;-83
2021/12/07 11:37:10;;;;;;;13.88;6.32;;;;;;;4.37;100.00;100747.00;5062590;28;20425;-81
2021/12/07 11:39:52;;;;;;;12.65;5.95;;;;;;;4.43;100.00;100736.72;5057792;28;20497;-81
2021/12/07 11:42:24;;;;;;;12.65;6.07;;;;;;;4.47;100.00;100740.31;5052885;28;20600;-82
2021/12/07 11:44:58;;;;;;;14.43;6.32;;;;;;;4.51;100.00;100741.28;5048552;28;20033;-82
2021/12/07 11:47:34;;;;;;;16.67;7.40;;;;;;;4.54;100.00;100734.41;5016001;28;20044;-81
2021/12/07 11:50:27;;;;;;;17.17;6.32;;;;;;;4.60;100.00;100738.91;5046365;28;20056;-82
2021/12/07 11:53:04;;;;;;;17.00;5.78;;;;;;;4.62;100.00;100737.22;5043422;28;20048;-82
2021/12/07 11:55:33;;;;;;;24.15;7.15;;;;;;;4.64;100.00;100733.78;5017737;28;20194;-82
2021/12/07 11:58:06;;;;;;;15.63;5.70;;;;;;;4.68;100.00;100734.75;5052758;28;20060;-82
2021/12/07 12:00:57;;;;;;;23.13;6.65;;;;;;;4.71;100.00;100742.69;5037118;28;20146;-82
2021/12/07 12:03:26;;;;;;;12.05;5.50;;;;;;;4.73;100.00;100738.38;4996346;28;20049;-82
2021/12/07 12:05:55;;;;;;;14.32;5.65;;;;;;;4.76;100.00;100737.56;5033625;28;20049;-82
2021/12/07 12:08:25;;;;;;;27.17;5.57;;;;;;;4.78;100.00;100743.69;5043033;28;20486;-82
2021/12/07 12:11:03;;;;;;;12.38;5.72;;;;;;;4.81;100.00;100749.88;5033268;28;20418;-82
2021/12/07 12:13:40;;;;;;;12.63;4.90;;;;;;;4.85;100.00;100741.28;5053764;28;20061;-83
2021/12/07 12:16:30;;;;;;;15.88;4.47;;;;;;;4.86;100.00;100735.22;5038499;28;20044;-81
2021/12/07 12:19:04;;;;;;;14.73;4.32;;;;;;;4.86;100.00;100736.94;5025899;28;20393;-81
2021/12/07 12:22:15;;;;;;;13.75;4.07;;;;;;;4.85;100.00;100740.41;5051243;28;20040;-81
2021/12/07 12:24:48;;;;;;;11.38;4.28;;;;;;;4.87;100.00;100739.56;5049760;28;20041;-80
2021/12/07 12:27:25;;;;;;;10.77;4.97;;;;;;;4.89;100.00;100737.00;5030027;28;20157;-80
2021/12/07 12:29:56;;;;;;;16.77;5.15;;;;;;;4.90;100.00;100730.97;5054643;28;20051;-81
2021/12/07 12:32:30;;;;;;;18.75;5.82;;;;;;;4.91;100.00;100732.69;5011298;28;20356;-80
2021/12/07 12:34:59;;;;;;;13.93;5.88;;;;;;;4.90;100.00;100720.50;5000285;28;20052;-82
2021/12/07 12:37:31;;;;;;;13.35;5.07;;;;;;;4.88;100.00;100727.44;5044063;28;20037;-80
2021/12/07 12:40:01;;;;;;;12.15;5.20;;;;;;;4.87;100.00;100726.53;5085050;28;20141;-81
2021/12/07 12:42:37;;;;;;;16.65;5.20;;;;;;;4.85;100.00;100719.50;5046948;28;20048;-83
2021/12/07 12:45:28;;;;;;;14.38;4.90;;;;;;;4.84;100.00;100717.75;5051376;28;20045;-82
2021/12/07 12:48:19;;;;;;;8.00;4.30;;;;;;;4.82;100.00;100722.94;5028252;28;20028;-79
2021/12/07 12:50:54;;;;;;;11.20;4.80;;;;;;;4.82;100.00;100708.97;4984276;28;20048;-80
2021/12/07 12:53:26;;;;;;;12.05;4.75;;;;;;;4.80;100.00;100706.34;5047584;28;20520;-83
2021/12/07 12:55:57;;;;;;;14.23;4.75;;;;;;;4.78;100.00;100707.16;5032544;28;20521;-81
2021/12/07 12:58:28;;;;;;;;;;;;;;;4.74;100.00;100703.56;5045243;28;20044;-81
2021/12/07 13:01:09;;;;;;;13.13;5.18;;;;;;;4.69;100.00;100708.69;5052196;28;20048;-81
2021/12/07 13:03:59;;;;;;;14.32;4.72;;;;;;;4.64;100.00;100706.81;5031746;28;20494;-82
2021/12/07 13:06:31;;;;;;;17.05;4.78;;;;;;;4.57;100.00;100703.16;4998507;28;20052;-81
2021/12/07 13:09:17;;;;;;;17.35;5.30;;;;;;;4.53;100.00;100701.31;5048899;28;20059;-83
2021/12/07 13:12:06;;;;;;;10.80;5.32;;;;;;;4.45;100.00;100693.28;5056015;28;20429;-81
2021/12/07 13:14:49;;;;;;;20.50;5.40;;;;;;;4.42;100.00;100693.22;5042614;28;20597;-82
2021/12/07 13:17:29;;;;;;;10.23;4.32;;;;;;;4.39;100.00;100687.06;5019384;28;20644;-81
2021/12/07 13:20:00;;;;;;;13.13;4.85;;;;;;;4.34;100.00;100683.44;5049878;28;20037;-81
2021/12/07 13:22:45;;;;;;;14.27;5.05;;;;;;;4.30;100.00;100678.13;4998508;28;20060;-80
2021/12/07 13:25:23;;;;;;;19.77;6.75;;;;;;;4.27;100.00;100685.88;5042274;28;20056;-83
2021/12/07 13:28:12;;;;;;;9.77;4.97;;;;;;;4.24;100.00;100683.19;5065993;28;20059;-83
2021/12/07 13:30:50;;;;;;;14.35;5.35;;;;;;;4.21;100.00;100677.88;5029425;28;20044;-76